Aviation Digital Data Service (ADDS)

Output produced by METARs form (1219 UTC 25 June 2019)
found at http://www.aviationweather.gov/metar/data/
 
METAR text: LIPQ 251150Z 06005KT 350V140 CAVOK 33/19 Q1021
Conditions at: LIPQ (RONCHI LEGIONARI, IT) observed 1150 UTC 25 June 2019
Temperature: 33.0°C (91°F)
Dewpoint: 19.0°C (66°F) [RH = 44%]
Pressure (altimeter): 30.15 inches Hg (1021.0 mb)
Winds: from the ENE (60 degrees) at 6 MPH (5 knots; 2.6 m/s)
Visibility: 6 or more miles (10+ km)
Ceiling: ceiling and visibility are OK
Clouds: unknown
Weather: no significant weather observed at this time

METAR text: LIPQ 251120Z VRB05KT CAVOK 32/18 Q1021
Conditions at: LIPQ (RONCHI LEGIONARI, IT) observed 1120 UTC 25 June 2019
Temperature: 32.0°C (90°F)
Dewpoint: 18.0°C (64°F) [RH = 43%]
Pressure (altimeter): 30.15 inches Hg (1021.0 mb)
Winds: variable direction winds at 6 MPH (5 knots; 2.6 m/s)
Visibility: 6 or more miles (10+ km)
Ceiling: ceiling and visibility are OK
Clouds: unknown
Weather: no significant weather observed at this time

METAR text: LIPQ 251050Z 11009KT 090V150 CAVOK 32/19 Q1021
Conditions at: LIPQ (RONCHI LEGIONARI, IT) observed 1050 UTC 25 June 2019
Temperature: 32.0°C (90°F)
Dewpoint: 19.0°C (66°F) [RH = 46%]
Pressure (altimeter): 30.15 inches Hg (1021.0 mb)
Winds: from the ESE (110 degrees) at 10 MPH (9 knots; 4.6 m/s)
Visibility: 6 or more miles (10+ km)
Ceiling: ceiling and visibility are OK
Clouds: unknown
Weather: no significant weather observed at this time

METAR text: LIPQ 251020Z 12011KT CAVOK 32/19 Q1021
Conditions at: LIPQ (RONCHI LEGIONARI, IT) observed 1020 UTC 25 June 2019
Temperature: 32.0°C (90°F)
Dewpoint: 19.0°C (66°F) [RH = 46%]
Pressure (altimeter): 30.15 inches Hg (1021.0 mb)
Winds: from the ESE (120 degrees) at 13 MPH (11 knots; 5.7 m/s)
Visibility: 6 or more miles (10+ km)
Ceiling: ceiling and visibility are OK
Clouds: unknown
Weather: no significant weather observed at this time

METAR text: LIPQ 250950Z VRB02KT CAVOK 32/20 Q1021
Conditions at: LIPQ (RONCHI LEGIONARI, IT) observed 0950 UTC 25 June 2019
Temperature: 32.0°C (90°F)
Dewpoint: 20.0°C (68°F) [RH = 49%]
Pressure (altimeter): 30.15 inches Hg (1021.0 mb)
Winds: variable direction winds at 2 MPH (2 knots; 1.0 m/s)
Visibility: 6 or more miles (10+ km)
Ceiling: ceiling and visibility are OK
Clouds: unknown
Weather: no significant weather observed at this time

METAR text: LIPQ 250920Z VRB02KT CAVOK 31/19 Q1021
Conditions at: LIPQ (RONCHI LEGIONARI, IT) observed 0920 UTC 25 June 2019
Temperature: 31.0°C (88°F)
Dewpoint: 19.0°C (66°F) [RH = 49%]
Pressure (altimeter): 30.15 inches Hg (1021.0 mb)
Winds: variable direction winds at 2 MPH (2 knots; 1.0 m/s)
Visibility: 6 or more miles (10+ km)
Ceiling: ceiling and visibility are OK
Clouds: unknown
Weather: no significant weather observed at this time

METAR text: LIPQ 250850Z VRB03KT CAVOK 30/20 Q1021
Conditions at: LIPQ (RONCHI LEGIONARI, IT) observed 0850 UTC 25 June 2019
Temperature: 30.0°C (86°F)
Dewpoint: 20.0°C (68°F) [RH = 55%]
Pressure (altimeter): 30.15 inches Hg (1021.0 mb)
Winds: variable direction winds at 3 MPH (3 knots; 1.5 m/s)
Visibility: 6 or more miles (10+ km)
Ceiling: ceiling and visibility are OK
Clouds: unknown
Weather: no significant weather observed at this time

METAR text: LIPQ 250820Z VRB02KT CAVOK 30/19 Q1021
Conditions at: LIPQ (RONCHI LEGIONARI, IT) observed 0820 UTC 25 June 2019
Temperature: 30.0°C (86°F)
Dewpoint: 19.0°C (66°F) [RH = 52%]
Pressure (altimeter): 30.15 inches Hg (1021.0 mb)
Winds: variable direction winds at 2 MPH (2 knots; 1.0 m/s)
Visibility: 6 or more miles (10+ km)
Ceiling: ceiling and visibility are OK
Clouds: unknown
Weather: no significant weather observed at this time

METAR text: LIPQ 250750Z VRB02KT CAVOK 29/19 Q1021
Conditions at: LIPQ (RONCHI LEGIONARI, IT) observed 0750 UTC 25 June 2019
Temperature: 29.0°C (84°F)
Dewpoint: 19.0°C (66°F) [RH = 55%]
Pressure (altimeter): 30.15 inches Hg (1021.0 mb)
Winds: variable direction winds at 2 MPH (2 knots; 1.0 m/s)
Visibility: 6 or more miles (10+ km)
Ceiling: ceiling and visibility are OK
Clouds: unknown
Weather: no significant weather observed at this time

METAR text: LIPQ 250720Z 33004KT 290V010 CAVOK 28/19 Q1021
Conditions at: LIPQ (RONCHI LEGIONARI, IT) observed 0720 UTC 25 June 2019
Temperature: 28.0°C (82°F)
Dewpoint: 19.0°C (66°F) [RH = 58%]
Pressure (altimeter): 30.15 inches Hg (1021.0 mb)
Winds: from the NNW (330 degrees) at 5 MPH (4 knots; 2.1 m/s)
Visibility: 6 or more miles (10+ km)
Ceiling: ceiling and visibility are OK
Clouds: unknown
Weather: no significant weather observed at this time

METAR text: LIPQ 250650Z 36004KT CAVOK 27/20 Q1021
Conditions at: LIPQ (RONCHI LEGIONARI, IT) observed 0650 UTC 25 June 2019
Temperature: 27.0°C (81°F)
Dewpoint: 20.0°C (68°F) [RH = 66%]
Pressure (altimeter): 30.15 inches Hg (1021.0 mb)
Winds: from the N (360 degrees) at 5 MPH (4 knots; 2.1 m/s)
Visibility: 6 or more miles (10+ km)
Ceiling: ceiling and visibility are OK
Clouds: unknown
Weather: no significant weather observed at this time

METAR text: LIPQ 250620Z 01004KT 330V050 CAVOK 27/19 Q1021
Conditions at: LIPQ (RONCHI LEGIONARI, IT) observed 0620 UTC 25 June 2019
Temperature: 27.0°C (81°F)
Dewpoint: 19.0°C (66°F) [RH = 62%]
Pressure (altimeter): 30.15 inches Hg (1021.0 mb)
Winds: from the N (10 degrees) at 5 MPH (4 knots; 2.1 m/s)
Visibility: 6 or more miles (10+ km)
Ceiling: ceiling and visibility are OK
Clouds: unknown
Weather: no significant weather observed at this time

METAR text: LIPQ 250550Z 31003KT 270V360 CAVOK 25/20 Q1021
Conditions at: LIPQ (RONCHI LEGIONARI, IT) observed 0550 UTC 25 June 2019
Temperature: 25.0°C (77°F)
Dewpoint: 20.0°C (68°F) [RH = 74%]
Pressure (altimeter): 30.15 inches Hg (1021.0 mb)
Winds: from the NW (310 degrees) at 3 MPH (3 knots; 1.5 m/s)
Visibility: 6 or more miles (10+ km)
Ceiling: ceiling and visibility are OK
Clouds: unknown
Weather: no significant weather observed at this time

METAR text: LIPQ 250520Z 35005KT CAVOK 24/20 Q1021
Conditions at: LIPQ (RONCHI LEGIONARI, IT) observed 0520 UTC 25 June 2019
Temperature: 24.0°C (75°F)
Dewpoint: 20.0°C (68°F) [RH = 78%]
Pressure (altimeter): 30.15 inches Hg (1021.0 mb)
Winds: from the N (350 degrees) at 6 MPH (5 knots; 2.6 m/s)
Visibility: 6 or more miles (10+ km)
Ceiling: ceiling and visibility are OK
Clouds: unknown
Weather: no significant weather observed at this time

METAR text: LIPQ 250450Z 35006KT CAVOK 23/19 Q1020
Conditions at: LIPQ (RONCHI LEGIONARI, IT) observed 0450 UTC 25 June 2019
Temperature: 23.0°C (73°F)
Dewpoint: 19.0°C (66°F) [RH = 78%]
Pressure (altimeter): 30.12 inches Hg (1020.0 mb)
Winds: from the N (350 degrees) at 7 MPH (6 knots; 3.1 m/s)
Visibility: 6 or more miles (10+ km)
Ceiling: ceiling and visibility are OK
Clouds: unknown
Weather: no significant weather observed at this time

METAR text: LIPQ 250420Z VRB02KT CAVOK 21/19 Q1020
Conditions at: LIPQ (RONCHI LEGIONARI, IT) observed 0420 UTC 25 June 2019
Temperature: 21.0°C (70°F)
Dewpoint: 19.0°C (66°F) [RH = 88%]
Pressure (altimeter): 30.12 inches Hg (1020.0 mb)
Winds: variable direction winds at 2 MPH (2 knots; 1.0 m/s)
Visibility: 6 or more miles (10+ km)
Ceiling: ceiling and visibility are OK
Clouds: unknown
Weather: no significant weather observed at this time

METAR text: LIPQ 250350Z AUTO VRB02KT 9999 SCT052/// BKN059/// 21/19 Q1021
Conditions at: LIPQ (RONCHI LEGIONARI, IT) observed 0350 UTC 25 June 2019
Temperature: 21.0°C (70°F)
Dewpoint: 19.0°C (66°F) [RH = 88%]
Pressure (altimeter): 30.15 inches Hg (1021.0 mb)
Winds: variable direction winds at 2 MPH (2 knots; 1.0 m/s)
Visibility: 6 or more miles (10+ km)
Ceiling: 5900 feet AGL
Clouds: scattered clouds at 5200 feet AGL
broken clouds at 5900 feet AGL
Weather: no significant weather observed at this time

METAR text: LIPQ 250320Z AUTO 01003KT 320V110 9999 SCT051/// 21/19 Q1020
Conditions at: LIPQ (RONCHI LEGIONARI, IT) observed 0320 UTC 25 June 2019
Temperature: 21.0°C (70°F)
Dewpoint: 19.0°C (66°F) [RH = 88%]
Pressure (altimeter): 30.12 inches Hg (1020.0 mb)
Winds: from the N (10 degrees) at 3 MPH (3 knots; 1.5 m/s)
Visibility: 6 or more miles (10+ km)
Ceiling: at least 12,000 feet AGL
Clouds: scattered clouds at 5100 feet AGL
Weather: no significant weather observed at this time

METAR text: LIPQ 250250Z AUTO 32003KT 9999 NCD 21/19 Q1020
Conditions at: LIPQ (RONCHI LEGIONARI, IT) observed 0250 UTC 25 June 2019
Temperature: 21.0°C (70°F)
Dewpoint: 19.0°C (66°F) [RH = 88%]
Pressure (altimeter): 30.12 inches Hg (1020.0 mb)
Winds: from the NW (320 degrees) at 3 MPH (3 knots; 1.5 m/s)
Visibility: 6 or more miles (10+ km)
Ceiling: at least 12,000 feet AGL
Clouds: sky clear below 12,000 feet AGL
Weather: no significant weather observed at this time

METAR text: LIPQ 250220Z AUTO 03003KT 360V150 9999 NCD 21/19 Q1020
Conditions at: LIPQ (RONCHI LEGIONARI, IT) observed 0220 UTC 25 June 2019
Temperature: 21.0°C (70°F)
Dewpoint: 19.0°C (66°F) [RH = 88%]
Pressure (altimeter): 30.12 inches Hg (1020.0 mb)
Winds: from the NNE (30 degrees) at 3 MPH (3 knots; 1.5 m/s)
Visibility: 6 or more miles (10+ km)
Ceiling: at least 12,000 feet AGL
Clouds: sky clear below 12,000 feet AGL
Weather: no significant weather observed at this time

METAR text: LIPQ 250150Z AUTO 01003KT 9999 NCD 21/19 Q1020
Conditions at: LIPQ (RONCHI LEGIONARI, IT) observed 0150 UTC 25 June 2019
Temperature: 21.0°C (70°F)
Dewpoint: 19.0°C (66°F) [RH = 88%]
Pressure (altimeter): 30.12 inches Hg (1020.0 mb)
Winds: from the N (10 degrees) at 3 MPH (3 knots; 1.5 m/s)
Visibility: 6 or more miles (10+ km)
Ceiling: at least 12,000 feet AGL
Clouds: sky clear below 12,000 feet AGL
Weather: no significant weather observed at this time

METAR text: LIPQ 250120Z AUTO VRB02KT 9999 FEW110/// 22/20 Q1020
Conditions at: LIPQ (RONCHI LEGIONARI, IT) observed 0120 UTC 25 June 2019
Temperature: 22.0°C (72°F)
Dewpoint: 20.0°C (68°F) [RH = 88%]
Pressure (altimeter): 30.12 inches Hg (1020.0 mb)
Winds: variable direction winds at 2 MPH (2 knots; 1.0 m/s)
Visibility: 6 or more miles (10+ km)
Ceiling: at least 12,000 feet AGL
Clouds: few clouds at 11000 feet AGL
Weather: no significant weather observed at this time

METAR text: LIPQ 250050Z AUTO 04002KT 9999 SCT110/// 23/19 Q1021
Conditions at: LIPQ (RONCHI LEGIONARI, IT) observed 0050 UTC 25 June 2019
Temperature: 23.0°C (73°F)
Dewpoint: 19.0°C (66°F) [RH = 78%]
Pressure (altimeter): 30.15 inches Hg (1021.0 mb)
Winds: from the NE (40 degrees) at 2 MPH (2 knots; 1.0 m/s)
Visibility: 6 or more miles (10+ km)
Ceiling: at least 12,000 feet AGL
Clouds: scattered clouds at 11000 feet AGL
Weather: no significant weather observed at this time

METAR text: LIPQ 250020Z AUTO VRB01KT 9999 NCD 22/20 Q1021
Conditions at: LIPQ (RONCHI LEGIONARI, IT) observed 0020 UTC 25 June 2019
Temperature: 22.0°C (72°F)
Dewpoint: 20.0°C (68°F) [RH = 88%]
Pressure (altimeter): 30.15 inches Hg (1021.0 mb)
Winds: variable direction winds at 1 MPH (1 knots; 0.5 m/s)
Visibility: 6 or more miles (10+ km)
Ceiling: at least 12,000 feet AGL
Clouds: sky clear below 12,000 feet AGL
Weather: no significant weather observed at this time

METAR text: LIPQ 242350Z AUTO VRB01KT 9999 NCD 22/20 Q1020
Conditions at: LIPQ (RONCHI LEGIONARI, IT) observed 2350 UTC 24 June 2019
Temperature: 22.0°C (72°F)
Dewpoint: 20.0°C (68°F) [RH = 88%]
Pressure (altimeter): 30.12 inches Hg (1020.0 mb)
Winds: variable direction winds at 1 MPH (1 knots; 0.5 m/s)
Visibility: 6 or more miles (10+ km)
Ceiling: at least 12,000 feet AGL
Clouds: sky clear below 12,000 feet AGL
Weather: no significant weather observed at this time

METAR text: LIPQ 242320Z AUTO 01003KT 340V050 9999 FEW110/// 24/19 Q1021
Conditions at: LIPQ (RONCHI LEGIONARI, IT) observed 2320 UTC 24 June 2019
Temperature: 24.0°C (75°F)
Dewpoint: 19.0°C (66°F) [RH = 74%]
Pressure (altimeter): 30.15 inches Hg (1021.0 mb)
Winds: from the N (10 degrees) at 3 MPH (3 knots; 1.5 m/s)
Visibility: 6 or more miles (10+ km)
Ceiling: at least 12,000 feet AGL
Clouds: few clouds at 11000 feet AGL
Weather: no significant weather observed at this time

METAR text: LIPQ 242250Z AUTO VRB02KT 9999 FEW059/// BKN110/// 25/18 Q1021
Conditions at: LIPQ (RONCHI LEGIONARI, IT) observed 2250 UTC 24 June 2019
Temperature: 25.0°C (77°F)
Dewpoint: 18.0°C (64°F) [RH = 65%]
Pressure (altimeter): 30.15 inches Hg (1021.0 mb)
Winds: variable direction winds at 2 MPH (2 knots; 1.0 m/s)
Visibility: 6 or more miles (10+ km)
Ceiling: 11000 feet AGL
Clouds: few clouds at 5900 feet AGL
broken clouds at 11000 feet AGL
Weather: no significant weather observed at this time

METAR text: LIPQ 242220Z AUTO 10005KT 9999 BKN058/// 25/18 Q1021
Conditions at: LIPQ (RONCHI LEGIONARI, IT) observed 2220 UTC 24 June 2019
Temperature: 25.0°C (77°F)
Dewpoint: 18.0°C (64°F) [RH = 65%]
Pressure (altimeter): 30.15 inches Hg (1021.0 mb)
Winds: from the E (100 degrees) at 6 MPH (5 knots; 2.6 m/s)
Visibility: 6 or more miles (10+ km)
Ceiling: 5800 feet AGL
Clouds: broken clouds at 5800 feet AGL
Weather: no significant weather observed at this time

METAR text: LIPQ 242150Z 10006KT 9999 FEW060 25/19 Q1020
Conditions at: LIPQ (RONCHI LEGIONARI, IT) observed 2150 UTC 24 June 2019
Temperature: 25.0°C (77°F)
Dewpoint: 19.0°C (66°F) [RH = 69%]
Pressure (altimeter): 30.12 inches Hg (1020.0 mb)
Winds: from the E (100 degrees) at 7 MPH (6 knots; 3.1 m/s)
Visibility: 6 or more miles (10+ km)
Ceiling: at least 12,000 feet AGL
Clouds: few clouds at 6000 feet AGL
Weather: no significant weather observed at this time

METAR text: LIPQ 242120Z 10005KT 9999 SCT060 26/19 Q1020
Conditions at: LIPQ (RONCHI LEGIONARI, IT) observed 2120 UTC 24 June 2019
Temperature: 26.0°C (79°F)
Dewpoint: 19.0°C (66°F) [RH = 65%]
Pressure (altimeter): 30.12 inches Hg (1020.0 mb)
Winds: from the E (100 degrees) at 6 MPH (5 knots; 2.6 m/s)
Visibility: 6 or more miles (10+ km)
Ceiling: at least 12,000 feet AGL
Clouds: scattered clouds at 6000 feet AGL
Weather: no significant weather observed at this time

METAR text: LIPQ 242050Z 10005KT 9999 SCT060 26/19 Q1020
Conditions at: LIPQ (RONCHI LEGIONARI, IT) observed 2050 UTC 24 June 2019
Temperature: 26.0°C (79°F)
Dewpoint: 19.0°C (66°F) [RH = 65%]
Pressure (altimeter): 30.12 inches Hg (1020.0 mb)
Winds: from the E (100 degrees) at 6 MPH (5 knots; 2.6 m/s)
Visibility: 6 or more miles (10+ km)
Ceiling: at least 12,000 feet AGL
Clouds: scattered clouds at 6000 feet AGL
Weather: no significant weather observed at this time

METAR text: LIPQ 242020Z 10005KT 9999 SCT060 26/19 Q1020
Conditions at: LIPQ (RONCHI LEGIONARI, IT) observed 2020 UTC 24 June 2019
Temperature: 26.0°C (79°F)
Dewpoint: 19.0°C (66°F) [RH = 65%]
Pressure (altimeter): 30.12 inches Hg (1020.0 mb)
Winds: from the E (100 degrees) at 6 MPH (5 knots; 2.6 m/s)
Visibility: 6 or more miles (10+ km)
Ceiling: at least 12,000 feet AGL
Clouds: scattered clouds at 6000 feet AGL
Weather: no significant weather observed at this time

METAR text: LIPQ 241950Z 10001KT 9999 FEW060 27/18 Q1019
Conditions at: LIPQ (RONCHI LEGIONARI, IT) observed 1950 UTC 24 June 2019
Temperature: 27.0°C (81°F)
Dewpoint: 18.0°C (64°F) [RH = 58%]
Pressure (altimeter): 30.09 inches Hg (1019.0 mb)
Winds: from the E (100 degrees) at 1 MPH (1 knots; 0.5 m/s)
Visibility: 6 or more miles (10+ km)
Ceiling: at least 12,000 feet AGL
Clouds: few clouds at 6000 feet AGL
Weather: no significant weather observed at this time

METAR text: LIPQ 241920Z VRB01KT 9999 SCT060 27/19 Q1019
Conditions at: LIPQ (RONCHI LEGIONARI, IT) observed 1920 UTC 24 June 2019
Temperature: 27.0°C (81°F)
Dewpoint: 19.0°C (66°F) [RH = 62%]
Pressure (altimeter): 30.09 inches Hg (1019.0 mb)
Winds: variable direction winds at 1 MPH (1 knots; 0.5 m/s)
Visibility: 6 or more miles (10+ km)
Ceiling: at least 12,000 feet AGL
Clouds: scattered clouds at 6000 feet AGL
Weather: no significant weather observed at this time

METAR text: LIPQ 241850Z 32003KT CAVOK 28/19 Q1018
Conditions at: LIPQ (RONCHI LEGIONARI, IT) observed 1850 UTC 24 June 2019
Temperature: 28.0°C (82°F)
Dewpoint: 19.0°C (66°F) [RH = 58%]
Pressure (altimeter): 30.06 inches Hg (1018.0 mb)
Winds: from the NW (320 degrees) at 3 MPH (3 knots; 1.5 m/s)
Visibility: 6 or more miles (10+ km)
Ceiling: ceiling and visibility are OK
Clouds: unknown
Weather: no significant weather observed at this time

METAR text: LIPQ 241820Z 31004KT CAVOK 29/19 Q1018
Conditions at: LIPQ (RONCHI LEGIONARI, IT) observed 1820 UTC 24 June 2019
Temperature: 29.0°C (84°F)
Dewpoint: 19.0°C (66°F) [RH = 55%]
Pressure (altimeter): 30.06 inches Hg (1018.0 mb)
Winds: from the NW (310 degrees) at 5 MPH (4 knots; 2.1 m/s)
Visibility: 6 or more miles (10+ km)
Ceiling: ceiling and visibility are OK
Clouds: unknown
Weather: no significant weather observed at this time

METAR text: LIPQ 241750Z 31004KT CAVOK 30/20 Q1018
Conditions at: LIPQ (RONCHI LEGIONARI, IT) observed 1750 UTC 24 June 2019
Temperature: 30.0°C (86°F)
Dewpoint: 20.0°C (68°F) [RH = 55%]
Pressure (altimeter): 30.06 inches Hg (1018.0 mb)
Winds: from the NW (310 degrees) at 5 MPH (4 knots; 2.1 m/s)
Visibility: 6 or more miles (10+ km)
Ceiling: ceiling and visibility are OK
Clouds: unknown
Weather: no significant weather observed at this time

METAR text: LIPQ 241720Z 30004KT CAVOK 30/19 Q1018
Conditions at: LIPQ (RONCHI LEGIONARI, IT) observed 1720 UTC 24 June 2019
Temperature: 30.0°C (86°F)
Dewpoint: 19.0°C (66°F) [RH = 52%]
Pressure (altimeter): 30.06 inches Hg (1018.0 mb)
Winds: from the WNW (300 degrees) at 5 MPH (4 knots; 2.1 m/s)
Visibility: 6 or more miles (10+ km)
Ceiling: ceiling and visibility are OK
Clouds: unknown
Weather: no significant weather observed at this time

METAR text: LIPQ 241650Z 29006KT CAVOK 31/18 Q1018
Conditions at: LIPQ (RONCHI LEGIONARI, IT) observed 1650 UTC 24 June 2019
Temperature: 31.0°C (88°F)
Dewpoint: 18.0°C (64°F) [RH = 46%]
Pressure (altimeter): 30.06 inches Hg (1018.0 mb)
Winds: from the WNW (290 degrees) at 7 MPH (6 knots; 3.1 m/s)
Visibility: 6 or more miles (10+ km)
Ceiling: ceiling and visibility are OK
Clouds: unknown
Weather: no significant weather observed at this time

METAR text: LIPQ 241620Z 29005KT CAVOK 31/19 Q1017
Conditions at: LIPQ (RONCHI LEGIONARI, IT) observed 1620 UTC 24 June 2019
Temperature: 31.0°C (88°F)
Dewpoint: 19.0°C (66°F) [RH = 49%]
Pressure (altimeter): 30.03 inches Hg (1017.0 mb)
Winds: from the WNW (290 degrees) at 6 MPH (5 knots; 2.6 m/s)
Visibility: 6 or more miles (10+ km)
Ceiling: ceiling and visibility are OK
Clouds: unknown
Weather: no significant weather observed at this time

METAR text: LIPQ 241550Z 30005KT CAVOK 31/18 Q1018
Conditions at: LIPQ (RONCHI LEGIONARI, IT) observed 1550 UTC 24 June 2019
Temperature: 31.0°C (88°F)
Dewpoint: 18.0°C (64°F) [RH = 46%]
Pressure (altimeter): 30.06 inches Hg (1018.0 mb)
Winds: from the WNW (300 degrees) at 6 MPH (5 knots; 2.6 m/s)
Visibility: 6 or more miles (10+ km)
Ceiling: ceiling and visibility are OK
Clouds: unknown
Weather: no significant weather observed at this time

METAR text: LIPQ 241520Z 28004KT 250V320 CAVOK 31/18 Q1018
Conditions at: LIPQ (RONCHI LEGIONARI, IT) observed 1520 UTC 24 June 2019
Temperature: 31.0°C (88°F)
Dewpoint: 18.0°C (64°F) [RH = 46%]
Pressure (altimeter): 30.06 inches Hg (1018.0 mb)
Winds: from the W (280 degrees) at 5 MPH (4 knots; 2.1 m/s)
Visibility: 6 or more miles (10+ km)
Ceiling: ceiling and visibility are OK
Clouds: unknown
Weather: no significant weather observed at this time

METAR text: LIPQ 241450Z 29004KT 9999 SCT090 30/18 Q1018
Conditions at: LIPQ (RONCHI LEGIONARI, IT) observed 1450 UTC 24 June 2019
Temperature: 30.0°C (86°F)
Dewpoint: 18.0°C (64°F) [RH = 49%]
Pressure (altimeter): 30.06 inches Hg (1018.0 mb)
Winds: from the WNW (290 degrees) at 5 MPH (4 knots; 2.1 m/s)
Visibility: 6 or more miles (10+ km)
Ceiling: at least 12,000 feet AGL
Clouds: scattered clouds at 9000 feet AGL
Weather: no significant weather observed at this time

METAR text: LIPQ 241420Z 27005KT 240V310 9999 BKN080 30/18 Q1018
Conditions at: LIPQ (RONCHI LEGIONARI, IT) observed 1420 UTC 24 June 2019
Temperature: 30.0°C (86°F)
Dewpoint: 18.0°C (64°F) [RH = 49%]
Pressure (altimeter): 30.06 inches Hg (1018.0 mb)
Winds: from the W (270 degrees) at 6 MPH (5 knots; 2.6 m/s)
Visibility: 6 or more miles (10+ km)
Ceiling: 8000 feet AGL
Clouds: broken clouds at 8000 feet AGL
Weather: no significant weather observed at this time

METAR text: LIPQ 241350Z 25007KT 9999 FEW030CB 31/18 Q1018
Conditions at: LIPQ (RONCHI LEGIONARI, IT) observed 1350 UTC 24 June 2019
Temperature: 31.0°C (88°F)
Dewpoint: 18.0°C (64°F) [RH = 46%]
Pressure (altimeter): 30.06 inches Hg (1018.0 mb)
Winds: from the WSW (250 degrees) at 8 MPH (7 knots; 3.6 m/s)
Visibility: 6 or more miles (10+ km)
Ceiling: at least 12,000 feet AGL
Clouds: few clouds at 3000 feet AGL
Weather: no significant weather observed at this time

METAR text: LIPQ 241320Z 30005KT 250V360 9999 FEW030 30/17 Q1018
Conditions at: LIPQ (RONCHI LEGIONARI, IT) observed 1320 UTC 24 June 2019
Temperature: 30.0°C (86°F)
Dewpoint: 17.0°C (63°F) [RH = 46%]
Pressure (altimeter): 30.06 inches Hg (1018.0 mb)
Winds: from the WNW (300 degrees) at 6 MPH (5 knots; 2.6 m/s)
Visibility: 6 or more miles (10+ km)
Ceiling: at least 12,000 feet AGL
Clouds: few clouds at 3000 feet AGL
Weather: no significant weather observed at this time

METAR text: LIPQ 241250Z 29004KT 240V040 9999 FEW030 31/18 Q1018
Conditions at: LIPQ (RONCHI LEGIONARI, IT) observed 1250 UTC 24 June 2019
Temperature: 31.0°C (88°F)
Dewpoint: 18.0°C (64°F) [RH = 46%]
Pressure (altimeter): 30.06 inches Hg (1018.0 mb)
Winds: from the WNW (290 degrees) at 5 MPH (4 knots; 2.1 m/s)
Visibility: 6 or more miles (10+ km)
Ceiling: at least 12,000 feet AGL
Clouds: few clouds at 3000 feet AGL
Weather: no significant weather observed at this time

METAR text: LIPQ 241220Z 26006KT 200V320 9999 FEW030 30/18 Q1018
Conditions at: LIPQ (RONCHI LEGIONARI, IT) observed 1220 UTC 24 June 2019
Temperature: 30.0°C (86°F)
Dewpoint: 18.0°C (64°F) [RH = 49%]
Pressure (altimeter): 30.06 inches Hg (1018.0 mb)
Winds: from the W (260 degrees) at 7 MPH (6 knots; 3.1 m/s)
Visibility: 6 or more miles (10+ km)
Ceiling: at least 12,000 feet AGL
Clouds: few clouds at 3000 feet AGL
Weather: no significant weather observed at this time

METAR text: LIPQ 241150Z 26005KT 190V290 9999 FEW030 30/19 Q1018
Conditions at: LIPQ (RONCHI LEGIONARI, IT) observed 1150 UTC 24 June 2019
Temperature: 30.0°C (86°F)
Dewpoint: 19.0°C (66°F) [RH = 52%]
Pressure (altimeter): 30.06 inches Hg (1018.0 mb)
Winds: from the W (260 degrees) at 6 MPH (5 knots; 2.6 m/s)
Visibility: 6 or more miles (10+ km)
Ceiling: at least 12,000 feet AGL
Clouds: few clouds at 3000 feet AGL
Weather: no significant weather observed at this time

METAR text: LIPQ 241120Z 23006KT 190V270 9999 FEW030 30/19 Q1018
Conditions at: LIPQ (RONCHI LEGIONARI, IT) observed 1120 UTC 24 June 2019
Temperature: 30.0°C (86°F)
Dewpoint: 19.0°C (66°F) [RH = 52%]
Pressure (altimeter): 30.06 inches Hg (1018.0 mb)
Winds: from the SW (230 degrees) at 7 MPH (6 knots; 3.1 m/s)
Visibility: 6 or more miles (10+ km)
Ceiling: at least 12,000 feet AGL
Clouds: few clouds at 3000 feet AGL
Weather: no significant weather observed at this time

METAR text: LIPQ 241050Z 24005KT 200V290 9999 FEW030 29/19 Q1018
Conditions at: LIPQ (RONCHI LEGIONARI, IT) observed 1050 UTC 24 June 2019
Temperature: 29.0°C (84°F)
Dewpoint: 19.0°C (66°F) [RH = 55%]
Pressure (altimeter): 30.06 inches Hg (1018.0 mb)
Winds: from the WSW (240 degrees) at 6 MPH (5 knots; 2.6 m/s)
Visibility: 6 or more miles (10+ km)
Ceiling: at least 12,000 feet AGL
Clouds: few clouds at 3000 feet AGL
Weather: no significant weather observed at this time

METAR text: LIPQ 241020Z 31003KT 230V040 CAVOK 30/19 Q1018
Conditions at: LIPQ (RONCHI LEGIONARI, IT) observed 1020 UTC 24 June 2019
Temperature: 30.0°C (86°F)
Dewpoint: 19.0°C (66°F) [RH = 52%]
Pressure (altimeter): 30.06 inches Hg (1018.0 mb)
Winds: from the NW (310 degrees) at 3 MPH (3 knots; 1.5 m/s)
Visibility: 6 or more miles (10+ km)
Ceiling: ceiling and visibility are OK
Clouds: unknown
Weather: no significant weather observed at this time

METAR text: LIPQ 240950Z 25003KT 200V310 CAVOK 29/17 Q1018
Conditions at: LIPQ (RONCHI LEGIONARI, IT) observed 0950 UTC 24 June 2019
Temperature: 29.0°C (84°F)
Dewpoint: 17.0°C (63°F) [RH = 48%]
Pressure (altimeter): 30.06 inches Hg (1018.0 mb)
Winds: from the WSW (250 degrees) at 3 MPH (3 knots; 1.5 m/s)
Visibility: 6 or more miles (10+ km)
Ceiling: ceiling and visibility are OK
Clouds: unknown
Weather: no significant weather observed at this time

METAR text: LIPQ 240920Z 18003KT 130V270 CAVOK 29/18 Q1018
Conditions at: LIPQ (RONCHI LEGIONARI, IT) observed 0920 UTC 24 June 2019
Temperature: 29.0°C (84°F)
Dewpoint: 18.0°C (64°F) [RH = 52%]
Pressure (altimeter): 30.06 inches Hg (1018.0 mb)
Winds: from the S (180 degrees) at 3 MPH (3 knots; 1.5 m/s)
Visibility: 6 or more miles (10+ km)
Ceiling: ceiling and visibility are OK
Clouds: unknown
Weather: no significant weather observed at this time

METAR text: LIPQ 240850Z VRB02KT CAVOK 28/17 Q1018
Conditions at: LIPQ (RONCHI LEGIONARI, IT) observed 0850 UTC 24 June 2019
Temperature: 28.0°C (82°F)
Dewpoint: 17.0°C (63°F) [RH = 51%]
Pressure (altimeter): 30.06 inches Hg (1018.0 mb)
Winds: variable direction winds at 2 MPH (2 knots; 1.0 m/s)
Visibility: 6 or more miles (10+ km)
Ceiling: ceiling and visibility are OK
Clouds: unknown
Weather: no significant weather observed at this time

METAR text: LIPQ 240820Z VRB02KT CAVOK 27/16 Q1018
Conditions at: LIPQ (RONCHI LEGIONARI, IT) observed 0820 UTC 24 June 2019
Temperature: 27.0°C (81°F)
Dewpoint: 16.0°C (61°F) [RH = 51%]
Pressure (altimeter): 30.06 inches Hg (1018.0 mb)
Winds: variable direction winds at 2 MPH (2 knots; 1.0 m/s)
Visibility: 6 or more miles (10+ km)
Ceiling: ceiling and visibility are OK
Clouds: unknown
Weather: no significant weather observed at this time

METAR text: LIPQ 240750Z VRB02KT CAVOK 27/17 Q1018
Conditions at: LIPQ (RONCHI LEGIONARI, IT) observed 0750 UTC 24 June 2019
Temperature: 27.0°C (81°F)
Dewpoint: 17.0°C (63°F) [RH = 54%]
Pressure (altimeter): 30.06 inches Hg (1018.0 mb)
Winds: variable direction winds at 2 MPH (2 knots; 1.0 m/s)
Visibility: 6 or more miles (10+ km)
Ceiling: ceiling and visibility are OK
Clouds: unknown
Weather: no significant weather observed at this time

METAR text: LIPQ 240720Z 26003KT 210V310 CAVOK 26/19 Q1018
Conditions at: LIPQ (RONCHI LEGIONARI, IT) observed 0720 UTC 24 June 2019
Temperature: 26.0°C (79°F)
Dewpoint: 19.0°C (66°F) [RH = 65%]
Pressure (altimeter): 30.06 inches Hg (1018.0 mb)
Winds: from the W (260 degrees) at 3 MPH (3 knots; 1.5 m/s)
Visibility: 6 or more miles (10+ km)
Ceiling: ceiling and visibility are OK
Clouds: unknown
Weather: no significant weather observed at this time

METAR text: LIPQ 240650Z 19003KT 140V220 CAVOK 25/18 Q1018
Conditions at: LIPQ (RONCHI LEGIONARI, IT) observed 0650 UTC 24 June 2019
Temperature: 25.0°C (77°F)
Dewpoint: 18.0°C (64°F) [RH = 65%]
Pressure (altimeter): 30.06 inches Hg (1018.0 mb)
Winds: from the S (190 degrees) at 3 MPH (3 knots; 1.5 m/s)
Visibility: 6 or more miles (10+ km)
Ceiling: ceiling and visibility are OK
Clouds: unknown
Weather: no significant weather observed at this time

METAR text: LIPQ 240620Z 09004KT 070V130 CAVOK 24/18 Q1018
Conditions at: LIPQ (RONCHI LEGIONARI, IT) observed 0620 UTC 24 June 2019
Temperature: 24.0°C (75°F)
Dewpoint: 18.0°C (64°F) [RH = 69%]
Pressure (altimeter): 30.06 inches Hg (1018.0 mb)
Winds: from the E (90 degrees) at 5 MPH (4 knots; 2.1 m/s)
Visibility: 6 or more miles (10+ km)
Ceiling: ceiling and visibility are OK
Clouds: unknown
Weather: no significant weather observed at this time

METAR text: LIPQ 240550Z 11003KT CAVOK 23/18 Q1018
Conditions at: LIPQ (RONCHI LEGIONARI, IT) observed 0550 UTC 24 June 2019
Temperature: 23.0°C (73°F)
Dewpoint: 18.0°C (64°F) [RH = 73%]
Pressure (altimeter): 30.06 inches Hg (1018.0 mb)
Winds: from the ESE (110 degrees) at 3 MPH (3 knots; 1.5 m/s)
Visibility: 6 or more miles (10+ km)
Ceiling: ceiling and visibility are OK
Clouds: unknown
Weather: no significant weather observed at this time

METAR text: LIPQ 240520Z 10002KT CAVOK 21/18 Q1018
Conditions at: LIPQ (RONCHI LEGIONARI, IT) observed 0520 UTC 24 June 2019
Temperature: 21.0°C (70°F)
Dewpoint: 18.0°C (64°F) [RH = 83%]
Pressure (altimeter): 30.06 inches Hg (1018.0 mb)
Winds: from the E (100 degrees) at 2 MPH (2 knots; 1.0 m/s)
Visibility: 6 or more miles (10+ km)
Ceiling: ceiling and visibility are OK
Clouds: unknown
Weather: no significant weather observed at this time

METAR text: LIPQ 240450Z VRB01KT CAVOK 20/18 Q1018
Conditions at: LIPQ (RONCHI LEGIONARI, IT) observed 0450 UTC 24 June 2019
Temperature: 20.0°C (68°F)
Dewpoint: 18.0°C (64°F) [RH = 88%]
Pressure (altimeter): 30.06 inches Hg (1018.0 mb)
Winds: variable direction winds at 1 MPH (1 knots; 0.5 m/s)
Visibility: 6 or more miles (10+ km)
Ceiling: ceiling and visibility are OK
Clouds: unknown
Weather: no significant weather observed at this time

METAR text: LIPQ 240420Z VRB01KT CAVOK 19/18 Q1018
Conditions at: LIPQ (RONCHI LEGIONARI, IT) observed 0420 UTC 24 June 2019
Temperature: 19.0°C (66°F)
Dewpoint: 18.0°C (64°F) [RH = 94%]
Pressure (altimeter): 30.06 inches Hg (1018.0 mb)
Winds: variable direction winds at 1 MPH (1 knots; 0.5 m/s)
Visibility: 6 or more miles (10+ km)
Ceiling: ceiling and visibility are OK
Clouds: unknown
Weather: no significant weather observed at this time

METAR text: LIPQ 240350Z AUTO 07003KT 9999 NCD 18/17 Q1018
Conditions at: LIPQ (RONCHI LEGIONARI, IT) observed 0350 UTC 24 June 2019
Temperature: 18.0°C (64°F)
Dewpoint: 17.0°C (63°F) [RH = 94%]
Pressure (altimeter): 30.06 inches Hg (1018.0 mb)
Winds: from the ENE (70 degrees) at 3 MPH (3 knots; 1.5 m/s)
Visibility: 6 or more miles (10+ km)
Ceiling: at least 12,000 feet AGL
Clouds: sky clear below 12,000 feet AGL
Weather: no significant weather observed at this time

METAR text: LIPQ 240320Z AUTO 35003KT 9999 NCD 18/17 Q1017
Conditions at: LIPQ (RONCHI LEGIONARI, IT) observed 0320 UTC 24 June 2019
Temperature: 18.0°C (64°F)
Dewpoint: 17.0°C (63°F) [RH = 94%]
Pressure (altimeter): 30.03 inches Hg (1017.0 mb)
Winds: from the N (350 degrees) at 3 MPH (3 knots; 1.5 m/s)
Visibility: 6 or more miles (10+ km)
Ceiling: at least 12,000 feet AGL
Clouds: sky clear below 12,000 feet AGL
Weather: no significant weather observed at this time

METAR text: LIPQ 240250Z AUTO 03003KT 9999 NCD 18/18 Q1017
Conditions at: LIPQ (RONCHI LEGIONARI, IT) observed 0250 UTC 24 June 2019
Temperature: 18.0°C (64°F)
Dewpoint: 18.0°C (64°F) [RH = 100%]
Pressure (altimeter): 30.03 inches Hg (1017.0 mb)
Winds: from the NNE (30 degrees) at 3 MPH (3 knots; 1.5 m/s)
Visibility: 6 or more miles (10+ km)
Ceiling: at least 12,000 feet AGL
Clouds: sky clear below 12,000 feet AGL
Weather: no significant weather observed at this time

METAR text: LIPQ 240220Z AUTO VRB02KT 9999 NCD 19/18 Q1017
Conditions at: LIPQ (RONCHI LEGIONARI, IT) observed 0220 UTC 24 June 2019
Temperature: 19.0°C (66°F)
Dewpoint: 18.0°C (64°F) [RH = 94%]
Pressure (altimeter): 30.03 inches Hg (1017.0 mb)
Winds: variable direction winds at 2 MPH (2 knots; 1.0 m/s)
Visibility: 6 or more miles (10+ km)
Ceiling: at least 12,000 feet AGL
Clouds: sky clear below 12,000 feet AGL
Weather: no significant weather observed at this time

METAR text: LIPQ 240150Z AUTO 35003KT 9999 NCD 19/18 Q1017
Conditions at: LIPQ (RONCHI LEGIONARI, IT) observed 0150 UTC 24 June 2019
Temperature: 19.0°C (66°F)
Dewpoint: 18.0°C (64°F) [RH = 94%]
Pressure (altimeter): 30.03 inches Hg (1017.0 mb)
Winds: from the N (350 degrees) at 3 MPH (3 knots; 1.5 m/s)
Visibility: 6 or more miles (10+ km)
Ceiling: at least 12,000 feet AGL
Clouds: sky clear below 12,000 feet AGL
Weather: no significant weather observed at this time

METAR text: LIPQ 240120Z AUTO 02004KT 9999 NCD 19/18 Q1017
Conditions at: LIPQ (RONCHI LEGIONARI, IT) observed 0120 UTC 24 June 2019
Temperature: 19.0°C (66°F)
Dewpoint: 18.0°C (64°F) [RH = 94%]
Pressure (altimeter): 30.03 inches Hg (1017.0 mb)
Winds: from the NNE (20 degrees) at 5 MPH (4 knots; 2.1 m/s)
Visibility: 6 or more miles (10+ km)
Ceiling: at least 12,000 feet AGL
Clouds: sky clear below 12,000 feet AGL
Weather: no significant weather observed at this time

METAR text: LIPQ 240050Z AUTO 36004KT 340V050 9999 NCD 19/19 Q1017
Conditions at: LIPQ (RONCHI LEGIONARI, IT) observed 0050 UTC 24 June 2019
Temperature: 19.0°C (66°F)
Dewpoint: 19.0°C (66°F) [RH = 100%]
Pressure (altimeter): 30.03 inches Hg (1017.0 mb)
Winds: from the N (360 degrees) at 5 MPH (4 knots; 2.1 m/s)
Visibility: 6 or more miles (10+ km)
Ceiling: at least 12,000 feet AGL
Clouds: sky clear below 12,000 feet AGL
Weather: no significant weather observed at this time

METAR text: LIPQ 240020Z AUTO 36004KT 9999 NCD 19/18 Q1017
Conditions at: LIPQ (RONCHI LEGIONARI, IT) observed 0020 UTC 24 June 2019
Temperature: 19.0°C (66°F)
Dewpoint: 18.0°C (64°F) [RH = 94%]
Pressure (altimeter): 30.03 inches Hg (1017.0 mb)
Winds: from the N (360 degrees) at 5 MPH (4 knots; 2.1 m/s)
Visibility: 6 or more miles (10+ km)
Ceiling: at least 12,000 feet AGL
Clouds: sky clear below 12,000 feet AGL
Weather: no significant weather observed at this time

Forecast for: LIPQ (RONCHI LEGIONARI, IT)
Text: TAF LIPQ 251100Z 2512/2612 VRB06KT CAVOK
Forecast period: 1200 UTC 25 June 2019 to 1200 UTC 26 June 2019
Forecast type: FROM: standard forecast or significant change
Winds: variable direction winds at 7 MPH (6 knots; 3.1 m/s)
Visibility: 6 or more miles 10+ km)
Ceiling: unknown
Clouds: missing
Weather: NSW  (no significant weather)